Martin, Utah
Current Conditions -  °F | °C
As of 8:53 AM on Friday 19 Dec 2014 (Local Time) from KPUC Reporting Station
Clear Clear  
Wind Chill: 28°   Ceiling: Unl
Heat Index: 28°   Visibility: 10mi
Dew Point: 21°   Wind: 3mph
Humidity: 75%   Direction: 60°ENE
Pressure: 30.23"   Gusts: NA
Location:  39.7304°N, 110.917°W
Report Text: KPUC 191553Z AUTO 06003KT 10SM CLR M02/M06 A3023 RMK AO2 SLP283 T10221061
Loading
Personal Weather Stations






























Interactive Weather Map New forecast layout! Learn more

10-Day Weather Forecast

Advertisements
Track Severe Weather on mobile